createdAt,value
2023-12-24T00:00:46.714Z,98947.20
2023-12-24T00:03:34.990Z,98954.80
2023-12-24T00:06:03.503Z,98952.00
2023-12-24T00:08:34.019Z,98950.80
2023-12-24T00:11:03.335Z,98949.60
2023-12-24T00:13:33.236Z,98952.00
2023-12-24T00:16:01.768Z,98950.40
2023-12-24T00:18:30.164Z,98958.80
2023-12-24T00:20:58.435Z,98964.00
2023-12-24T00:23:26.640Z,98963.20
2023-12-24T00:25:54.683Z,98966.40
2023-12-24T00:28:22.689Z,98978.60
2023-12-24T00:30:50.732Z,98984.80
2023-12-24T00:33:18.954Z,98984.40
2023-12-24T00:35:50.471Z,98988.80
2023-12-24T00:38:18.856Z,98992.40
2023-12-24T00:40:47.134Z,98992.20
2023-12-24T00:43:15.154Z,98999.80
2023-12-24T00:45:46.988Z,99000.20
2023-12-24T00:48:15.190Z,98993.80
2023-12-24T00:50:43.517Z,99012.60
2023-12-24T00:53:13.592Z,99012.40
2023-12-24T00:55:43.097Z,99016.40
2023-12-24T00:58:11.400Z,99027.20
2023-12-24T01:00:39.763Z,99035.20
2023-12-24T01:03:07.861Z,99043.80
2023-12-24T01:05:37.460Z,99058.80
2023-12-24T01:08:05.988Z,99060.00
2023-12-24T01:10:34.099Z,99060.80
2023-12-24T01:13:02.195Z,99070.80
2023-12-24T01:15:30.278Z,99077.60
2023-12-24T01:18:00.075Z,99075.40
2023-12-24T01:20:28.429Z,99083.00
2023-12-24T01:22:58.124Z,99087.00
2023-12-24T01:25:26.122Z,99102.60
2023-12-24T01:27:54.831Z,99104.20
2023-12-24T01:30:22.863Z,99103.80
2023-12-24T01:32:51.361Z,99110.20
2023-12-24T01:35:19.985Z,99118.40
2023-12-24T01:37:48.025Z,99120.00
2023-12-24T01:40:16.113Z,99127.80
2023-12-24T01:42:46.753Z,99129.40
2023-12-24T01:45:15.108Z,99130.20
2023-12-24T01:47:50.788Z,99130.60
2023-12-24T01:50:22.790Z,99137.80
2023-12-24T01:52:51.339Z,99129.40
2023-12-24T01:55:21.446Z,99129.40
2023-12-24T01:57:50.648Z,99129.00
2023-12-24T02:00:20.897Z,99128.80
2023-12-24T02:02:52.678Z,99127.80
2023-12-24T02:05:21.268Z,99130.20
2023-12-24T02:07:50.041Z,99126.20
2023-12-24T02:10:19.817Z,99129.40
2023-12-24T02:12:48.246Z,99133.60
2023-12-24T02:15:16.723Z,99135.60
2023-12-24T02:17:45.811Z,99137.20
2023-12-24T02:20:13.980Z,99139.60
2023-12-24T02:22:42.053Z,99136.00
2023-12-24T02:25:10.822Z,99135.80
2023-12-24T02:27:48.425Z,99136.20
2023-12-24T02:30:33.389Z,99142.40
2023-12-24T02:33:04.604Z,99141.00
2023-12-24T02:35:36.083Z,99140.20
2023-12-24T02:38:04.977Z,99150.80
2023-12-24T02:40:33.079Z,99156.00
2023-12-24T02:43:02.656Z,99156.80
2023-12-24T02:45:30.756Z,99170.40
2023-12-24T02:47:59.921Z,99172.60
2023-12-24T02:50:28.184Z,99178.00
2023-12-24T02:52:56.320Z,99179.20
2023-12-24T02:55:25.063Z,99175.40
2023-12-24T02:57:53.096Z,99177.60
2023-12-24T03:00:21.205Z,99181.60
2023-12-24T03:02:49.712Z,99181.20
2023-12-24T03:05:18.037Z,99178.60
2023-12-24T03:07:46.262Z,99181.60
2023-12-24T03:10:14.361Z,99187.60
2023-12-24T03:12:42.639Z,99185.00
2023-12-24T03:15:13.117Z,99187.20
2023-12-24T03:17:41.313Z,99198.40
2023-12-24T03:20:10.862Z,99208.20
2023-12-24T03:22:39.180Z,99210.20
2023-12-24T03:25:07.651Z,99211.20
2023-12-24T03:27:35.837Z,99220.40
2023-12-24T03:30:04.294Z,99217.60
2023-12-24T03:32:32.569Z,99219.40
2023-12-24T03:35:01.269Z,99219.20
2023-12-24T03:37:29.375Z,99225.20
2023-12-24T03:39:58.775Z,99236.00
2023-12-24T03:42:26.903Z,99241.80
2023-12-24T03:44:54.921Z,99242.00
2023-12-24T03:47:23.079Z,99243.80
2023-12-24T03:49:51.202Z,99242.00
2023-12-24T03:52:19.267Z,99238.00
2023-12-24T03:54:47.445Z,99237.40
2023-12-24T03:57:15.485Z,99241.40
2023-12-24T03:59:43.646Z,99243.80
2023-12-24T04:02:11.934Z,99244.40
2023-12-24T04:04:46.108Z,99247.80
2023-12-24T04:07:17.801Z,99257.20
2023-12-24T04:09:46.136Z,99251.20
2023-12-24T04:12:14.235Z,99259.60
2023-12-24T04:14:42.755Z,99256.80
2023-12-24T04:17:11.068Z,99270.20
2023-12-24T04:19:39.176Z,99270.60
2023-12-24T04:22:07.300Z,99269.80
2023-12-24T04:24:35.362Z,99272.40
2023-12-24T04:27:03.646Z,99268.20
2023-12-24T04:29:31.818Z,99276.80
2023-12-24T04:31:59.969Z,99268.20
2023-12-24T04:34:28.528Z,99271.60
2023-12-24T04:36:56.692Z,99271.20
2023-12-24T04:39:26.010Z,99274.80
2023-12-24T04:41:54.123Z,99283.80
2023-12-24T04:44:22.475Z,99285.20
2023-12-24T04:46:51.405Z,99297.80
2023-12-24T04:49:19.575Z,99294.40
2023-12-24T04:51:47.813Z,99301.20
2023-12-24T04:54:15.837Z,99313.00
2023-12-24T04:56:44.011Z,99313.20
2023-12-24T04:59:12.674Z,99320.20
2023-12-24T05:01:41.175Z,99313.40
2023-12-24T05:04:09.453Z,99314.20
2023-12-24T05:06:37.735Z,99319.40
2023-12-24T05:09:05.840Z,99312.20
2023-12-24T05:11:34.645Z,99314.20
2023-12-24T05:14:03.383Z,99312.80
2023-12-24T05:16:31.433Z,99308.00
2023-12-24T05:19:00.037Z,99307.20
2023-12-24T05:21:30.801Z,99315.20
2023-12-24T05:23:59.523Z,99318.60
2023-12-24T05:26:28.027Z,99323.20
2023-12-24T05:28:56.097Z,99316.20
2023-12-24T05:31:24.147Z,99318.60
2023-12-24T05:33:52.138Z,99326.80
2023-12-24T05:36:20.130Z,99330.80
2023-12-24T05:38:48.166Z,99331.80
2023-12-24T05:41:17.630Z,99340.00
2023-12-24T05:43:45.641Z,99333.40
2023-12-24T05:46:15.001Z,99342.00
2023-12-24T05:48:44.205Z,99347.40
2023-12-24T05:51:12.296Z,99358.40
2023-12-24T05:53:40.490Z,99356.20
2023-12-24T05:56:09.698Z,99369.00
2023-12-24T05:58:37.860Z,99370.60
2023-12-24T06:01:06.395Z,99378.20
2023-12-24T06:03:34.469Z,99385.20
2023-12-24T06:06:02.887Z,99388.40
2023-12-24T06:08:31.107Z,99396.60
2023-12-24T06:10:59.257Z,99400.80
2023-12-24T06:13:27.536Z,99401.60
2023-12-24T06:15:55.628Z,99399.00
2023-12-24T06:18:23.785Z,99396.00
2023-12-24T06:20:52.214Z,99400.00
2023-12-24T06:23:20.399Z,99397.20
2023-12-24T06:25:48.445Z,99391.20
2023-12-24T06:28:16.603Z,99399.80
2023-12-24T06:30:44.661Z,99398.20
2023-12-24T06:33:12.819Z,99394.80
2023-12-24T06:35:40.890Z,99391.40
2023-12-24T06:38:09.059Z,99393.40
2023-12-24T06:40:37.101Z,99402.20
2023-12-24T06:43:05.527Z,99404.80
2023-12-24T06:45:33.630Z,99416.40
2023-12-24T06:48:04.556Z,99421.40
2023-12-24T06:50:32.762Z,99413.00
2023-12-24T06:53:02.645Z,99420.80
2023-12-24T06:55:30.678Z,99411.80
2023-12-24T06:57:59.027Z,99418.60
2023-12-24T07:00:27.026Z,99424.80
2023-12-24T07:02:55.324Z,99426.20
2023-12-24T07:05:23.623Z,99431.20
2023-12-24T07:07:51.864Z,99433.40
2023-12-24T07:10:20.611Z,99438.60
2023-12-24T07:12:48.727Z,99442.60
2023-12-24T07:15:16.735Z,99432.00
2023-12-24T07:17:44.872Z,99436.20
2023-12-24T07:20:13.419Z,99436.20
2023-12-24T07:22:41.723Z,99430.60
2023-12-24T07:25:10.835Z,99419.40
2023-12-24T07:27:39.707Z,99417.60
2023-12-24T07:30:09.229Z,99428.00
2023-12-24T07:32:37.475Z,99437.60
2023-12-24T07:35:05.809Z,99439.20
2023-12-24T07:37:33.890Z,99426.20
2023-12-24T07:40:02.248Z,99428.60
2023-12-24T07:42:30.518Z,99440.20
2023-12-24T07:44:58.637Z,99436.80
2023-12-24T07:47:26.797Z,99447.20
2023-12-24T07:49:54.912Z,99446.40
2023-12-24T07:52:22.981Z,99461.40
2023-12-24T07:54:50.919Z,99459.40
2023-12-24T07:57:19.097Z,99447.00
2023-12-24T07:59:47.077Z,99455.20
2023-12-24T08:02:15.155Z,99463.60
2023-12-24T08:04:45.398Z,99457.40
2023-12-24T08:07:13.538Z,99457.80
2023-12-24T08:09:41.789Z,99466.60
2023-12-24T08:12:09.833Z,99465.00
2023-12-24T08:14:37.993Z,99467.80
2023-12-24T08:17:06.188Z,99473.20
2023-12-24T08:19:34.241Z,99476.60
2023-12-24T08:22:02.527Z,99473.00
2023-12-24T08:24:30.512Z,99469.00
2023-12-24T08:26:58.567Z,99474.60
2023-12-24T08:29:26.554Z,99467.00
2023-12-24T08:31:56.646Z,99470.20
2023-12-24T08:34:26.114Z,99480.20
2023-12-24T08:36:54.207Z,99483.60
2023-12-24T08:39:22.351Z,99486.20
2023-12-24T08:41:50.562Z,99477.60
2023-12-24T08:44:18.868Z,99489.00
2023-12-24T08:46:49.780Z,99500.20
2023-12-24T08:49:17.866Z,99503.80
2023-12-24T08:51:46.129Z,99496.00
2023-12-24T08:54:14.198Z,99498.20
2023-12-24T08:56:42.475Z,99491.40
2023-12-24T08:59:10.745Z,99492.60
2023-12-24T09:01:42.509Z,99494.80
2023-12-24T09:04:10.701Z,99495.20
2023-12-24T09:06:39.318Z,99489.00
2023-12-24T09:09:10.102Z,99473.80
2023-12-24T09:11:38.237Z,99474.60
2023-12-24T09:14:06.440Z,99468.60
2023-12-24T09:16:34.608Z,99466.40
2023-12-24T09:19:02.957Z,99463.00
2023-12-24T09:21:31.282Z,99461.40
2023-12-24T09:24:02.066Z,99467.40
2023-12-24T09:26:30.232Z,99461.20
2023-12-24T09:28:58.269Z,99464.40
2023-12-24T09:31:26.399Z,99463.00
2023-12-24T09:33:54.664Z,99471.80
2023-12-24T09:36:22.703Z,99468.00
2023-12-24T09:38:50.966Z,99463.60
2023-12-24T09:41:20.708Z,99466.40
2023-12-24T09:43:48.889Z,99473.40
2023-12-24T09:46:17.162Z,99473.80
2023-12-24T09:48:45.325Z,99464.00
2023-12-24T09:51:13.355Z,99469.00
2023-12-24T09:53:45.906Z,99465.20
2023-12-24T09:56:14.001Z,99464.80
2023-12-24T09:58:43.119Z,99460.20
2023-12-24T10:01:11.799Z,99466.60
2023-12-24T10:03:39.984Z,99466.80
2023-12-24T10:06:09.935Z,99471.40
2023-12-24T10:08:40.106Z,99478.20
2023-12-24T10:11:37.408Z,99476.80
2023-12-24T10:14:05.867Z,99480.40
2023-12-24T10:16:46.555Z,99478.80
2023-12-24T10:19:24.882Z,99484.20
2023-12-24T10:22:09.474Z,99486.80
2023-12-24T10:24:42.977Z,99493.60
2023-12-24T10:27:16.502Z,99491.40
2023-12-24T10:29:44.797Z,99493.40
2023-12-24T10:32:12.936Z,99497.00
2023-12-24T10:34:41.524Z,99497.20
2023-12-24T10:37:30.676Z,99495.00
2023-12-24T10:40:25.014Z,99492.60
2023-12-24T10:42:53.293Z,99491.40
2023-12-24T10:45:21.458Z,99486.60
2023-12-24T10:47:49.931Z,99493.40
2023-12-24T10:50:18.156Z,99491.60
2023-12-24T10:52:46.198Z,99483.20
2023-12-24T10:55:15.416Z,99486.80
2023-12-24T10:58:08.620Z,99498.80
2023-12-24T11:00:36.693Z,99482.80
2023-12-24T11:03:04.746Z,99477.60
2023-12-24T11:05:42.257Z,99482.00
2023-12-24T11:08:31.685Z,99469.80
2023-12-24T11:11:05.762Z,99468.40
2023-12-24T11:13:34.185Z,99472.80
2023-12-24T11:16:06.140Z,99479.40
2023-12-24T11:18:49.347Z,99481.40
2023-12-24T11:21:20.824Z,99486.00
2023-12-24T11:24:15.382Z,99491.60
2023-12-24T11:26:52.358Z,99489.40
2023-12-24T11:29:39.556Z,99487.00
2023-12-24T11:32:26.129Z,99485.40
2023-12-24T11:34:58.685Z,99485.40
2023-12-24T11:37:31.757Z,99487.80
2023-12-24T11:40:19.726Z,99486.60
2023-12-24T11:42:50.463Z,99484.60
2023-12-24T11:45:22.848Z,99476.60
2023-12-24T11:47:52.422Z,99469.00
2023-12-24T11:50:21.981Z,99461.60
2023-12-24T11:52:51.837Z,99462.00
2023-12-24T11:55:21.601Z,99460.20
2023-12-24T11:57:51.117Z,99462.80
2023-12-24T12:00:29.764Z,99465.60
2023-12-24T12:03:01.325Z,99462.40
2023-12-24T12:05:31.575Z,99455.00
2023-12-24T12:08:00.079Z,99453.20
2023-12-24T12:10:29.264Z,99457.60
2023-12-24T12:12:58.139Z,99451.40
2023-12-24T12:15:28.351Z,99456.00
2023-12-24T12:17:56.812Z,99448.80
2023-12-24T12:20:27.109Z,99464.40
2023-12-24T12:22:55.557Z,99467.40
2023-12-24T12:25:23.997Z,99459.20
2023-12-24T12:27:52.054Z,99458.60
2023-12-24T12:30:23.527Z,99453.00
2023-12-24T12:32:52.366Z,99455.60
2023-12-24T12:35:20.963Z,99465.60
2023-12-24T12:37:49.273Z,99464.20
2023-12-24T12:40:17.325Z,99459.60
2023-12-24T12:42:45.727Z,99466.80
2023-12-24T12:45:14.097Z,99467.60
2023-12-24T12:47:42.728Z,99459.60
2023-12-24T12:50:11.632Z,99454.00
2023-12-24T12:52:39.855Z,99452.80
2023-12-24T12:55:09.712Z,99447.60
2023-12-24T12:57:38.236Z,99430.20
2023-12-24T13:00:10.645Z,99430.60
2023-12-24T13:02:40.325Z,99428.20
2023-12-24T13:05:30.799Z,99436.60
2023-12-24T13:08:01.163Z,99460.40
2023-12-24T13:10:34.255Z,99460.80
2023-12-24T13:13:25.571Z,99469.60
2023-12-24T13:16:10.190Z,99466.40
2023-12-24T13:18:38.964Z,99469.60
2023-12-24T13:21:12.220Z,99467.20
2023-12-24T13:23:40.558Z,99474.20
2023-12-24T13:26:08.696Z,99484.40
2023-12-24T13:28:38.689Z,99480.80
2023-12-24T13:31:08.812Z,99491.80
2023-12-24T13:33:36.904Z,99503.00
2023-12-24T13:36:05.989Z,99503.20
2023-12-24T13:38:34.166Z,99504.80
2023-12-24T13:41:02.244Z,99509.20
2023-12-24T13:43:30.299Z,99502.60
2023-12-24T13:45:59.026Z,99504.00
2023-12-24T13:48:28.048Z,99506.00
2023-12-24T13:50:56.484Z,99500.80
2023-12-24T13:53:31.684Z,99497.00
2023-12-24T13:56:02.755Z,99500.00
2023-12-24T13:58:34.763Z,99507.40
2023-12-24T14:01:03.701Z,99510.20
2023-12-24T14:03:32.045Z,99512.00
2023-12-24T14:06:01.441Z,99520.60
2023-12-24T14:08:31.984Z,99515.80
2023-12-24T14:11:00.533Z,99515.40
2023-12-24T14:13:28.545Z,99517.20
2023-12-24T14:15:58.357Z,99504.00
2023-12-24T14:18:26.652Z,99513.80
2023-12-24T14:20:54.836Z,99522.20
2023-12-24T14:23:22.906Z,99522.60
2023-12-24T14:25:51.063Z,99525.80
2023-12-24T14:28:19.234Z,99538.80
2023-12-24T14:30:51.548Z,99542.00
2023-12-24T14:33:20.359Z,99543.40
2023-12-24T14:35:48.692Z,99547.00
2023-12-24T14:38:17.061Z,99545.60
2023-12-24T14:40:46.793Z,99555.20
2023-12-24T14:43:15.143Z,99557.60
2023-12-24T14:45:43.176Z,99554.60
2023-12-24T14:48:11.628Z,99559.20
2023-12-24T14:50:40.013Z,99563.20
2023-12-24T14:53:09.109Z,99569.60
2023-12-24T14:55:37.443Z,99568.20
2023-12-24T14:58:05.800Z,99571.00
2023-12-24T15:00:34.113Z,99567.40
2023-12-24T15:03:02.340Z,99578.00
2023-12-24T15:05:30.797Z,99577.00
2023-12-24T15:07:59.458Z,99571.80
2023-12-24T15:10:27.565Z,99564.40
2023-12-24T15:12:55.529Z,99555.80
2023-12-24T15:15:23.621Z,99548.20
2023-12-24T15:17:52.094Z,99546.60
2023-12-24T15:20:20.408Z,99549.00
2023-12-24T15:22:48.769Z,99554.20
2023-12-24T15:25:16.796Z,99562.00
2023-12-24T15:27:44.957Z,99572.60
2023-12-24T15:30:13.156Z,99574.20
2023-12-24T15:32:41.555Z,99587.40
2023-12-24T15:35:09.914Z,99585.80
2023-12-24T15:37:37.958Z,99591.20
2023-12-24T15:40:08.973Z,99590.40
2023-12-24T15:42:36.981Z,99590.80
2023-12-24T15:45:05.994Z,99585.60
2023-12-24T15:47:34.180Z,99588.80
2023-12-24T15:50:02.778Z,99597.40
2023-12-24T15:52:31.070Z,99603.00
2023-12-24T15:55:01.515Z,99604.20
2023-12-24T15:57:30.413Z,99602.80
2023-12-24T15:59:58.998Z,99606.00
2023-12-24T16:02:29.109Z,99608.20
2023-12-24T16:04:57.438Z,99610.00
2023-12-24T16:07:25.700Z,99615.40
2023-12-24T16:09:53.703Z,99621.00
2023-12-24T16:12:22.140Z,99624.60
2023-12-24T16:14:50.331Z,99621.20
2023-12-24T16:17:18.491Z,99627.80
2023-12-24T16:19:46.530Z,99632.80
2023-12-24T16:22:15.225Z,99628.60
2023-12-24T16:24:43.595Z,99630.40
2023-12-24T16:27:11.700Z,99627.20
2023-12-24T16:29:39.881Z,99636.00
2023-12-24T16:32:08.172Z,99642.40
2023-12-24T16:34:36.271Z,99639.20
2023-12-24T16:37:04.324Z,99634.40
2023-12-24T16:39:33.461Z,99631.80
2023-12-24T16:42:01.484Z,99638.00
2023-12-24T16:44:29.581Z,99640.20
2023-12-24T16:46:57.961Z,99634.60
2023-12-24T16:49:26.259Z,99637.40
2023-12-24T16:51:55.015Z,99636.00
2023-12-24T16:54:23.055Z,99629.00
2023-12-24T16:56:51.323Z,99629.20
2023-12-24T16:59:20.420Z,99631.40
2023-12-24T17:01:49.160Z,99631.80
2023-12-24T17:04:17.308Z,99630.40
2023-12-24T17:06:45.678Z,99632.40
2023-12-24T17:09:15.701Z,99627.60
2023-12-24T17:11:43.854Z,99627.20
2023-12-24T17:14:12.227Z,99625.40
2023-12-24T17:16:42.539Z,99623.80
2023-12-24T17:19:10.851Z,99622.60
2023-12-24T17:21:39.132Z,99623.60
2023-12-24T17:24:08.351Z,99621.80
2023-12-24T17:26:40.335Z,99627.60
2023-12-24T17:29:08.587Z,99617.80
2023-12-24T17:31:36.673Z,99618.80
2023-12-24T17:34:04.873Z,99614.40
2023-12-24T17:36:33.129Z,99620.00
2023-12-24T17:39:01.356Z,99614.80
2023-12-24T17:41:29.564Z,99604.00
2023-12-24T17:43:58.215Z,99597.20
2023-12-24T17:46:31.429Z,99593.00
2023-12-24T17:48:59.756Z,99597.80
2023-12-24T17:51:28.097Z,99597.60
2023-12-24T17:53:57.031Z,99595.00
2023-12-24T17:56:25.209Z,99592.40
2023-12-24T17:58:53.367Z,99597.60
2023-12-24T18:01:21.422Z,99603.60
2023-12-24T18:03:49.524Z,99602.00
2023-12-24T18:06:17.916Z,99604.40
2023-12-24T18:08:46.020Z,99609.40
2023-12-24T18:11:16.818Z,99612.00
2023-12-24T18:13:44.887Z,99615.40
2023-12-24T18:16:12.932Z,99619.60
2023-12-24T18:18:41.158Z,99616.00
2023-12-24T18:21:09.280Z,99618.00
2023-12-24T18:23:37.491Z,99619.00
2023-12-24T18:26:06.668Z,99623.40
2023-12-24T18:28:34.779Z,99623.20
2023-12-24T18:31:02.959Z,99624.20
2023-12-24T18:33:31.204Z,99624.80
2023-12-24T18:35:59.442Z,99626.20
2023-12-24T18:38:28.567Z,99625.80
2023-12-24T18:40:56.964Z,99624.40
2023-12-24T18:43:25.035Z,99627.40
2023-12-24T18:45:53.190Z,99636.00
2023-12-24T18:48:23.309Z,99637.60
2023-12-24T18:50:51.756Z,99636.00
2023-12-24T18:53:20.080Z,99624.80
2023-12-24T18:55:48.545Z,99625.80
2023-12-24T18:58:16.603Z,99624.60
2023-12-24T19:00:44.709Z,99629.60
2023-12-24T19:03:13.006Z,99625.00
2023-12-24T19:05:41.607Z,99633.40
2023-12-24T19:08:09.803Z,99636.20
2023-12-24T19:10:37.748Z,99647.80
2023-12-24T19:13:05.780Z,99652.40
2023-12-24T19:15:33.774Z,99652.80
2023-12-24T19:18:02.934Z,99652.00
2023-12-24T19:20:32.062Z,99661.00
2023-12-24T19:23:00.193Z,99674.20
2023-12-24T19:25:28.393Z,99685.00
2023-12-24T19:27:56.398Z,99687.20
2023-12-24T19:30:24.405Z,99691.20
2023-12-24T19:32:52.736Z,99691.40
2023-12-24T19:35:21.060Z,99687.00
2023-12-24T19:37:49.262Z,99696.60
2023-12-24T19:40:17.385Z,99693.00
2023-12-24T19:42:45.612Z,99694.00
2023-12-24T19:45:13.808Z,99693.20
2023-12-24T19:47:42.136Z,99684.20
2023-12-24T19:50:11.935Z,99673.40
2023-12-24T19:52:40.637Z,99674.40
2023-12-24T19:55:09.351Z,99667.40
2023-12-24T19:57:37.578Z,99667.20
2023-12-24T20:00:06.997Z,99665.40
2023-12-24T20:02:44.113Z,99659.40
2023-12-24T20:05:12.976Z,99666.20
2023-12-24T20:07:41.153Z,99666.20
2023-12-24T20:10:10.219Z,99666.40
2023-12-24T20:12:38.733Z,99670.60
2023-12-24T20:15:07.157Z,99668.20
2023-12-24T20:17:35.528Z,99664.20
2023-12-24T20:20:04.000Z,99664.80
2023-12-24T20:22:32.112Z,99667.60
2023-12-24T20:25:00.936Z,99669.20
2023-12-24T20:27:29.131Z,99665.20
2023-12-24T20:29:57.327Z,99672.40
2023-12-24T20:32:26.722Z,99668.40
2023-12-24T20:34:55.120Z,99668.80
2023-12-24T20:37:25.256Z,99671.60
2023-12-24T20:39:53.579Z,99678.80
2023-12-24T20:42:21.638Z,99686.40
2023-12-24T20:44:49.766Z,99684.80
2023-12-24T20:47:17.949Z,99682.00
2023-12-24T20:49:46.197Z,99672.40
2023-12-24T20:52:14.948Z,99674.00
2023-12-24T20:54:46.013Z,99671.80
2023-12-24T20:57:14.642Z,99677.40
2023-12-24T20:59:42.814Z,99680.20
2023-12-24T21:02:10.998Z,99679.40
2023-12-24T21:04:43.985Z,99669.60
2023-12-24T21:07:12.213Z,99671.80
2023-12-24T21:09:42.139Z,99677.60
2023-12-24T21:12:10.256Z,99678.20
2023-12-24T21:14:38.379Z,99676.00
2023-12-24T21:17:06.419Z,99687.60
2023-12-24T21:19:34.796Z,99689.60
2023-12-24T21:22:03.104Z,99685.60
2023-12-24T21:24:31.208Z,99688.60
2023-12-24T21:26:59.305Z,99688.60
2023-12-24T21:29:27.467Z,99695.60
2023-12-24T21:31:56.282Z,99690.40
2023-12-24T21:34:24.306Z,99700.20
2023-12-24T21:36:57.390Z,99694.20
2023-12-24T21:39:25.627Z,99696.60
2023-12-24T21:41:54.092Z,99697.80
2023-12-24T21:44:22.704Z,99693.80
2023-12-24T21:46:50.831Z,99693.60
2023-12-24T21:49:19.077Z,99697.80
2023-12-24T21:51:47.768Z,99707.20
2023-12-24T21:54:16.311Z,99710.80
2023-12-24T21:56:44.630Z,99712.00
2023-12-24T21:59:13.374Z,99702.20
2023-12-24T22:01:44.512Z,99686.80
2023-12-24T22:04:13.265Z,99698.40
2023-12-24T22:06:42.287Z,99703.00
2023-12-24T22:09:10.534Z,99693.80
2023-12-24T22:11:42.338Z,99696.60
2023-12-24T22:14:10.728Z,99683.40
2023-12-24T22:16:40.552Z,99688.20
2023-12-24T22:19:08.974Z,99681.80
2023-12-24T22:21:49.319Z,99673.40
2023-12-24T22:24:23.480Z,99675.20
2023-12-24T22:26:52.649Z,99671.20
2023-12-24T22:29:20.953Z,99671.60
2023-12-24T22:31:49.845Z,99675.80
2023-12-24T22:34:18.528Z,99671.00
2023-12-24T22:36:46.913Z,99667.40
2023-12-24T22:39:22.265Z,99664.20
2023-12-24T22:41:50.700Z,99671.40
2023-12-24T22:44:19.507Z,99671.20
2023-12-24T22:46:47.616Z,99674.20
2023-12-24T22:49:15.930Z,99669.40
2023-12-24T22:51:44.084Z,99676.00
2023-12-24T22:54:12.359Z,99672.20
2023-12-24T22:56:40.369Z,99677.00
2023-12-24T22:59:08.442Z,99680.40
2023-12-24T23:01:36.359Z,99686.20
2023-12-24T23:04:04.858Z,99679.80
2023-12-24T23:06:32.951Z,99668.60
2023-12-24T23:09:01.221Z,99661.00
2023-12-24T23:11:29.487Z,99655.60
2023-12-24T23:13:57.480Z,99646.20
2023-12-24T23:16:25.507Z,99641.60
2023-12-24T23:18:53.607Z,99641.00
2023-12-24T23:21:21.930Z,99633.80
2023-12-24T23:23:50.092Z,99639.60
2023-12-24T23:26:18.201Z,99641.40
2023-12-24T23:28:46.198Z,99643.00
2023-12-24T23:31:14.339Z,99637.80
2023-12-24T23:33:42.466Z,99634.80
2023-12-24T23:36:12.912Z,99637.40
2023-12-24T23:38:42.412Z,99643.40
2023-12-24T23:41:10.984Z,99644.20
2023-12-24T23:43:40.861Z,99648.40
2023-12-24T23:46:12.784Z,99653.80
2023-12-24T23:48:41.356Z,99651.60
2023-12-24T23:51:09.474Z,99648.80
2023-12-24T23:53:37.664Z,99643.60
2023-12-24T23:56:13.100Z,99647.00
2023-12-24T23:58:41.170Z,99643.00
